Time;durP1;ratioP1;P1;durP2;ratioP2;P2;SDS_P1;SDS_P2;PMS_P1;PMS_P2;Temp;Humidity;BMP_temperature;BMP_pressure;BME280_temperature;BME280_humidity;BME280_pressure;Samples;Min_cycle;Max_cycle;Signal;HPM_P1;HPM_P2
2022/07/31 00:00:43;;;;;;;4.43;2.10;;;19.60;83.80;;;;;;5013932;28;20410;-92
2022/07/31 00:03:10;;;;;;;4.88;2.00;;;19.60;84.00;;;;;;5024499;28;20556;-92
2022/07/31 00:05:36;;;;;;;4.30;1.85;;;19.60;84.20;;;;;;5045801;28;20040;-92
2022/07/31 00:08:03;;;;;;;4.68;2.00;;;19.60;84.20;;;;;;5031258;28;20123;-92
2022/07/31 00:10:28;;;;;;;5.63;1.85;;;19.60;84.30;;;;;;5004776;28;20044;-91
2022/07/31 00:12:54;;;;;;;4.80;2.60;;;19.60;84.50;;;;;;5040416;28;20047;-91
2022/07/31 00:15:21;;;;;;;4.10;1.80;;;19.50;85.20;;;;;;5010038;28;20036;-94
2022/07/31 00:17:47;;;;;;;5.45;2.10;;;19.50;84.70;;;;;;5010647;28;20041;-93
2022/07/31 00:20:15;;;;;;;7.28;2.00;;;19.50;84.90;;;;;;5016543;28;20079;-92
2022/07/31 00:22:43;;;;;;;6.95;2.25;;;19.50;85.10;;;;;;5011295;28;20044;-93
2022/07/31 00:25:11;;;;;;;3.85;1.83;;;19.50;85.20;;;;;;5012575;28;20036;-93
2022/07/31 00:27:37;;;;;;;5.20;2.05;;;19.50;85.30;;;;;;5028272;28;20145;-92
2022/07/31 00:30:04;;;;;;;4.95;2.00;;;19.50;85.40;;;;;;4999142;28;20052;-90
2022/07/31 00:32:30;;;;;;;5.32;2.30;;;19.50;85.60;;;;;;5030977;28;20059;-92
2022/07/31 00:34:56;;;;;;;3.80;1.92;;;19.50;85.70;;;;;;4989740;28;20036;-90
2022/07/31 00:37:22;;;;;;;5.25;2.13;;;19.40;85.80;;;;;;5014578;28;20049;-93
2022/07/31 00:39:48;;;;;;;5.43;2.13;;;19.40;85.90;;;;;;5029846;28;20457;-92
2022/07/31 00:42:18;;;;;;;4.25;2.50;;;19.40;86.00;;;;;;5001448;28;20053;-92
2022/07/31 00:44:45;;;;;;;3.88;1.80;;;19.40;86.10;;;;;;5044537;28;20074;-91
2022/07/31 00:47:11;;;;;;;6.10;2.03;;;19.40;86.10;;;;;;5040697;28;20483;-92
2022/07/31 00:49:37;;;;;;;6.00;2.47;;;19.40;86.10;;;;;;5045138;28;20039;-93
2022/07/31 00:52:03;;;;;;;4.15;2.60;;;19.40;86.20;;;;;;4994674;28;20052;-91
2022/07/31 00:54:29;;;;;;;2.90;2.10;;;19.40;86.50;;;;;;5010259;28;20041;-93
2022/07/31 00:56:54;;;;;;;5.13;2.00;;;19.40;86.50;;;;;;4975504;28;20102;-93
2022/07/31 00:59:20;;;;;;;6.35;2.20;;;19.30;86.50;;;;;;4993821;28;20067;-91
2022/07/31 01:01:46;;;;;;;5.18;2.20;;;19.30;86.60;;;;;;4982644;28;20052;-90
2022/07/31 01:04:14;;;;;;;3.53;2.00;;;19.30;86.60;;;;;;4985647;28;20037;-91
2022/07/31 01:06:40;;;;;;;4.95;2.00;;;19.30;86.70;;;;;;4998681;28;20107;-90
2022/07/31 01:09:05;;;;;;;5.18;2.20;;;19.30;86.80;;;;;;5003629;28;20056;-90
2022/07/31 01:11:44;;;;;;;4.25;2.60;;;19.30;86.80;;;;;;5029887;28;20052;-89
2022/07/31 01:14:10;;;;;;;6.00;2.22;;;19.30;86.90;;;;;;5029356;28;20055;-90
2022/07/31 01:16:40;;;;;;;3.25;2.00;;;19.30;86.70;;;;;;5014797;28;20045;-90
2022/07/31 01:19:14;;;;;;;3.97;2.00;;;19.30;86.80;;;;;;5010400;28;20139;-90
2022/07/31 01:21:56;;;;;;;3.40;2.00;;;19.30;86.80;;;;;;5016118;28;20159;-89
2022/07/31 01:24:47;;;;;;;5.82;2.38;;;19.30;86.90;;;;;;5012007;28;20044;-89
2022/07/31 01:27:31;;;;;;;4.18;2.13;;;19.30;86.90;;;;;;5013279;28;20045;-90
2022/07/31 01:30:01;;;;;;;4.22;2.40;;;19.20;86.80;;;;;;5015082;28;20344;-91
2022/07/31 01:32:40;;;;;;;2.85;2.10;;;19.20;86.90;;;;;;5013605;28;20047;-89
2022/07/31 01:35:32;;;;;;;4.43;2.70;;;19.20;87.50;;;;;;5013861;28;20051;-91
2022/07/31 01:38:29;;;;;;;6.88;2.35;;;19.20;86.80;;;;;;5022911;28;20563;-89
2022/07/31 01:41:02;;;;;;;4.47;2.17;;;19.20;87.10;;;;;;5001823;28;20101;-91
2022/07/31 01:43:32;;;;;;;5.13;2.40;;;19.20;87.10;;;;;;5031991;28;20052;-92
2022/07/31 01:46:01;;;;;;;6.53;2.60;;;19.10;87.20;;;;;;5041432;28;20526;-89
2022/07/31 01:48:30;;;;;;;12.15;2.60;;;19.10;87.20;;;;;;5017529;28;20059;-89
2022/07/31 01:50:58;;;;;;;4.22;2.42;;;19.20;87.30;;;;;;4990006;28;20049;-89
2022/07/31 01:53:25;;;;;;;5.75;2.22;;;19.20;87.50;;;;;;5013955;28;20110;-89
2022/07/31 01:55:54;;;;;;;8.50;2.78;;;19.20;87.50;;;;;;5007227;28;20043;-91
2022/07/31 01:58:22;;;;;;;4.85;2.40;;;19.10;87.50;;;;;;5012975;28;20053;-90
2022/07/31 02:00:50;;;;;;;6.00;2.35;;;19.10;88.10;;;;;;4989528;28;20075;-90
2022/07/31 02:03:16;;;;;;;4.18;2.20;;;19.10;87.60;;;;;;5023408;28;20051;-90
2022/07/31 02:05:43;;;;;;;4.35;2.30;;;19.10;87.80;;;;;;4995618;28;20225;-89
2022/07/31 02:08:11;;;;;;;6.03;2.50;;;19.10;87.90;;;;;;4981153;28;20052;-90
2022/07/31 02:10:38;;;;;;;4.53;2.38;;;19.00;87.90;;;;;;5017847;28;20048;-90
2022/07/31 02:13:05;;;;;;;5.50;2.30;;;19.10;88.70;;;;;;5025652;28;20127;-91
2022/07/31 02:15:33;;;;;;;7.07;2.35;;;19.10;88.20;;;;;;4995104;28;20045;-90
2022/07/31 02:18:00;;;;;;;6.13;2.40;;;19.00;88.20;;;;;;4997041;28;20048;-89
2022/07/31 02:20:26;;;;;;;3.83;2.40;;;19.10;88.40;;;;;;4997481;28;20043;-91
2022/07/31 02:22:53;;;;;;;3.85;2.40;;;19.00;88.40;;;;;;5016603;28;20495;-88
2022/07/31 02:25:19;;;;;;;3.13;2.40;;;19.00;88.60;;;;;;5034242;28;20045;-89
2022/07/31 02:27:47;;;;;;;4.10;2.50;;;19.00;88.70;;;;;;5018568;28;20052;-88
2022/07/31 02:30:14;;;;;;;2.92;2.40;;;19.00;88.80;;;;;;5014772;28;20544;-89
2022/07/31 02:32:44;;;;;;;3.65;2.30;;;19.00;88.70;;;;;;5004517;28;20044;-91
2022/07/31 02:35:11;;;;;;;3.70;2.25;;;19.00;88.80;;;;;;5030197;28;20052;-89
2022/07/31 02:37:38;;;;;;;5.40;2.58;;;19.00;89.00;;;;;;5004953;28;20100;-90
2022/07/31 02:40:06;;;;;;;6.65;2.10;;;19.00;89.10;;;;;;5034856;28;20041;-90
2022/07/31 02:42:33;;;;;;;5.10;2.60;;;18.90;89.10;;;;;;5018222;28;20041;-91
2022/07/31 02:45:00;;;;;;;4.78;2.70;;;18.90;89.30;;;;;;5020290;28;20041;-90
2022/07/31 02:47:27;;;;;;;6.50;2.72;;;19.00;89.30;;;;;;5024502;28;20502;-91
2022/07/31 02:49:54;;;;;;;3.35;2.47;;;18.90;89.50;;;;;;5003965;28;20056;-89
2022/07/31 02:52:21;;;;;;;4.32;2.30;;;18.90;89.60;;;;;;5022504;28;20058;-90
2022/07/31 02:54:48;;;;;;;3.65;2.35;;;18.90;89.70;;;;;;5032342;28;20040;-89
2022/07/31 02:57:16;;;;;;;3.70;2.30;;;18.90;89.60;;;;;;5013289;28;20046;-89
2022/07/31 02:59:42;;;;;;;4.65;2.13;;;18.90;89.60;;;;;;5021371;28;20037;-92
2022/07/31 03:02:09;;;;;;;3.50;2.40;;;18.90;89.50;;;;;;5028113;28;20109;-91
2022/07/31 03:04:35;;;;;;;6.15;2.50;;;18.90;89.50;;;;;;5026198;28;20052;-89
2022/07/31 03:07:01;;;;;;;5.45;2.50;;;18.90;89.40;;;;;;5012670;28;20134;-90
2022/07/31 03:09:27;;;;;;;4.63;2.17;;;18.90;89.20;;;;;;5033369;28;20119;-90
2022/07/31 03:11:53;;;;;;;5.22;2.42;;;18.90;89.80;;;;;;5032958;28;20043;-91
2022/07/31 03:14:21;;;;;;;5.32;2.45;;;18.90;89.20;;;;;;5017403;28;20513;-90
2022/07/31 03:16:48;;;;;;;4.18;2.42;;;18.80;89.00;;;;;;5030323;28;20048;-91
2022/07/31 03:19:14;;;;;;;3.97;2.00;;;18.80;89.10;;;;;;5016789;28;20048;-92
2022/07/31 03:21:41;;;;;;;8.10;3.03;;;18.80;89.00;;;;;;4998293;28;20093;-89
2022/07/31 03:24:07;;;;;;;3.47;2.20;;;18.80;89.10;;;;;;5032550;28;20584;-92
2022/07/31 03:26:34;;;;;;;4.07;2.38;;;18.80;89.10;;;;;;5014548;28;20048;-91
2022/07/31 03:29:00;;;;;;;4.88;2.42;;;18.80;89.00;;;;;;5031907;28;20048;-90
2022/07/31 03:31:26;;;;;;;6.05;2.72;;;18.80;89.20;;;;;;5018044;28;20044;-90
2022/07/31 03:33:52;;;;;;;3.90;2.25;;;18.70;89.30;;;;;;5021598;28;20052;-92
2022/07/31 03:36:18;;;;;;;5.80;2.33;;;18.70;89.50;;;;;;5021682;28;20075;-91
2022/07/31 03:38:43;;;;;;;4.75;2.30;;;18.60;89.50;;;;;;5013481;28;20044;-89
2022/07/31 03:41:10;;;;;;;6.35;2.25;;;18.70;89.70;;;;;;4998382;28;20060;-88
2022/07/31 03:43:37;;;;;;;5.93;2.20;;;18.60;89.70;;;;;;5010837;28;20068;-90
2022/07/31 03:46:04;;;;;;;5.28;2.30;;;18.60;89.80;;;;;;5011226;28;20393;-90
2022/07/31 03:48:30;;;;;;;8.07;2.55;;;18.60;90.00;;;;;;5034224;28;20036;-89
2022/07/31 03:50:57;;;;;;;5.57;2.50;;;18.60;90.00;;;;;;5017597;28;20059;-89
2022/07/31 03:53:23;;;;;;;6.82;2.30;;;18.50;90.00;;;;;;5043581;28;20040;-90
2022/07/31 03:55:50;;;;;;;2.83;2.22;;;18.50;90.00;;;;;;5011695;28;20062;-90
2022/07/31 03:58:20;;;;;;;3.35;2.40;;;18.50;90.10;;;;;;5012450;28;20554;-89
2022/07/31 04:00:47;;;;;;;5.65;2.58;;;18.50;90.10;;;;;;5016417;28;20136;-88
2022/07/31 04:03:13;;;;;;;4.75;2.35;;;18.40;90.10;;;;;;5015173;28;20043;-90
2022/07/31 04:05:40;;;;;;;3.58;2.25;;;18.40;90.20;;;;;;5048665;28;20052;-90
2022/07/31 04:08:06;;;;;;;4.40;2.72;;;18.40;90.40;;;;;;5030820;28;20052;-91
2022/07/31 04:10:33;;;;;;;5.75;2.95;;;18.40;90.50;;;;;;5030033;28;20043;-90
2022/07/31 04:12:58;;;;;;;6.75;2.92;;;18.40;90.70;;;;;;5015796;28;20112;-90
2022/07/31 04:15:24;;;;;;;3.47;2.80;;;18.30;90.90;;;;;;4999498;28;20093;-90
2022/07/31 04:17:50;;;;;;;7.65;3.00;;;18.30;91.10;;;;;;4996312;28;20319;-91
2022/07/31 04:20:17;;;;;;;3.05;2.60;;;18.30;91.20;;;;;;4997040;28;20048;-90
2022/07/31 04:22:43;;;;;;;3.45;2.47;;;18.30;91.30;;;;;;4997233;28;20443;-90
2022/07/31 04:25:09;;;;;;;7.55;3.10;;;18.20;91.30;;;;;;5014924;28;20062;-89
2022/07/31 04:27:35;;;;;;;4.90;2.97;;;18.30;91.50;;;;;;5010758;28;20067;-92
2022/07/31 04:30:01;;;;;;;4.93;3.28;;;18.30;91.50;;;;;;5023375;28;20103;-89
2022/07/31 04:32:27;;;;;;;8.55;3.22;;;18.20;91.50;;;;;;5020197;28;20047;-89
2022/07/31 04:34:53;;;;;;;5.25;3.30;;;18.30;91.60;;;;;;5019003;28;20152;-90
2022/07/31 04:37:19;;;;;;;5.85;3.28;;;18.20;91.70;;;;;;5001908;28;20131;-89
2022/07/31 04:39:45;;;;;;;6.55;3.13;;;18.30;91.80;;;;;;5034514;28;20049;-91
2022/07/31 04:42:11;;;;;;;5.07;3.13;;;18.20;91.70;;;;;;4999714;28;20047;-91
2022/07/31 04:44:36;;;;;;;5.07;2.80;;;18.20;91.60;;;;;;5020939;28;20076;-89
2022/07/31 04:47:04;;;;;;;3.90;3.03;;;18.20;91.60;;;;;;5031793;28;20059;-90
2022/07/31 04:49:31;;;;;;;4.85;3.00;;;18.30;91.70;;;;;;5031748;28;20084;-89
2022/07/31 04:51:58;;;;;;;8.70;3.13;;;18.30;92.00;;;;;;5018959;28;20555;-90
2022/07/31 04:54:24;;;;;;;5.13;2.80;;;18.30;91.80;;;;;;5031614;28;20498;-89
2022/07/31 04:56:50;;;;;;;10.88;3.25;;;18.30;91.80;;;;;;5035523;28;20144;-91
2022/07/31 04:59:20;;;;;;;5.45;2.90;;;18.30;91.90;;;;;;5004004;28;20565;-89
2022/07/31 05:01:47;;;;;;;8.88;3.10;;;18.30;91.90;;;;;;5018780;28;20070;-89
2022/07/31 05:04:13;;;;;;;6.10;3.38;;;18.30;92.20;;;;;;5030568;28;20469;-90
2022/07/31 05:06:41;;;;;;;6.80;3.60;;;18.30;91.90;;;;;;5035436;28;20048;-90
2022/07/31 05:09:09;;;;;;;6.03;3.38;;;18.30;91.90;;;;;;5029148;28;20091;-92
2022/07/31 05:11:36;;;;;;;7.75;3.65;;;18.40;91.90;;;;;;5034380;28;20078;-90
2022/07/31 05:14:04;;;;;;;4.75;3.10;;;18.40;91.90;;;;;;5033290;28;20048;-90
2022/07/31 05:16:31;;;;;;;5.88;3.22;;;18.40;91.90;;;;;;5026058;28;20051;-89
2022/07/31 05:18:57;;;;;;;5.18;3.28;;;18.40;91.90;;;;;;5016249;28;20052;-91
2022/07/31 05:21:25;;;;;;;7.28;2.90;;;18.40;92.20;;;;;;5035666;28;20113;-89
2022/07/31 05:23:52;;;;;;;5.10;3.20;;;18.40;92.00;;;;;;5032742;28;20055;-90
2022/07/31 05:26:19;;;;;;;4.85;3.33;;;18.50;92.00;;;;;;5034005;28;20059;-89
2022/07/31 05:28:48;;;;;;;11.70;3.47;;;18.50;92.00;;;;;;5027922;28;20517;-90
2022/07/31 05:31:14;;;;;;;6.88;3.80;;;18.50;92.00;;;;;;5030475;28;20457;-92
2022/07/31 05:33:40;;;;;;;7.10;3.72;;;18.50;91.90;;;;;;5032331;28;20052;-89
2022/07/31 05:36:06;;;;;;;4.78;3.78;;;18.50;92.00;;;;;;5029430;28;20042;-89
2022/07/31 05:38:33;;;;;;;7.63;3.65;;;18.60;92.00;;;;;;5020833;28;20446;-90
2022/07/31 05:40:58;;;;;;;7.55;3.70;;;18.60;92.00;;;;;;5014897;28;20542;-90
2022/07/31 05:43:24;;;;;;;7.57;4.00;;;18.60;92.00;;;;;;5011760;28;20110;-88
2022/07/31 05:45:50;;;;;;;7.60;3.80;;;18.60;92.10;;;;;;4985830;28;1166297;-92
2022/07/31 05:48:16;;;;;;;7.22;3.65;;;18.70;92.20;;;;;;5000502;28;20647;-91
2022/07/31 05:50:44;;;;;;;8.48;4.03;;;18.70;92.30;;;;;;5002944;28;20405;-90
2022/07/31 05:53:16;;;;;;;8.90;3.72;;;18.70;92.30;;;;;;5027144;28;20095;-90
2022/07/31 05:55:42;;;;;;;;;;;18.70;92.30;;;;;;5025797;28;20055;-91
2022/07/31 05:58:08;;;;;;;8.05;3.80;;;18.70;92.20;;;;;;5043247;28;19920;-90
2022/07/31 06:00:35;;;;;;;10.07;4.20;;;18.80;92.40;;;;;;5026567;28;20082;-89
2022/07/31 06:03:01;;;;;;;6.13;4.00;;;18.80;92.50;;;;;;5031513;28;20179;-89
2022/07/31 06:05:31;;;;;;;9.98;4.05;;;18.90;92.50;;;;;;4999755;28;20037;-90
2022/07/31 06:07:58;;;;;;;7.30;4.07;;;18.90;92.50;;;;;;5031155;28;20048;-90
2022/07/31 06:10:25;;;;;;;6.22;4.07;;;18.90;92.50;;;;;;5032507;28;20119;-91
2022/07/31 06:12:50;;;;;;;5.78;3.90;;;18.90;92.40;;;;;;5028570;28;20044;-92
2022/07/31 06:15:16;;;;;;;8.27;4.20;;;19.00;92.50;;;;;;5006534;28;20070;-92
2022/07/31 06:17:43;;;;;;;7.25;4.28;;;19.00;92.50;;;;;;5029958;28;20078;-90
2022/07/31 06:20:10;;;;;;;7.30;4.10;;;19.10;92.60;;;;;;5015824;28;20516;-92
2022/07/31 06:22:42;;;;;;;8.13;4.50;;;19.10;92.60;;;;;;5043515;28;20059;-89
2022/07/31 06:25:09;;;;;;;6.47;3.90;;;19.20;92.50;;;;;;5034691;28;20098;-88
2022/07/31 06:27:35;;;;;;;6.63;4.60;;;19.20;92.50;;;;;;5012860;28;20044;-89
2022/07/31 06:30:05;;;;;;;4.70;3.92;;;19.30;92.50;;;;;;5008588;28;20040;-90
2022/07/31 06:32:32;;;;;;;6.90;4.18;;;19.30;92.40;;;;;;5035559;28;20047;-90
2022/07/31 06:34:59;;;;;;;6.50;4.40;;;19.40;92.40;;;;;;5010451;28;20051;-91
2022/07/31 06:37:25;;;;;;;7.30;4.28;;;19.40;92.40;;;;;;5029701;28;20036;-90
2022/07/31 06:39:51;;;;;;;4.80;4.03;;;19.50;92.60;;;;;;5031900;28;20133;-90
2022/07/31 06:42:21;;;;;;;9.40;4.40;;;19.60;92.60;;;;;;5010917;28;20992;-90
2022/07/31 06:44:49;;;;;;;7.13;4.60;;;19.60;92.50;;;;;;5042279;28;20752;-92
2022/07/31 06:47:17;;;;;;;5.63;4.30;;;19.70;92.40;;;;;;5030451;28;20067;-89
2022/07/31 06:49:43;;;;;;;9.05;4.40;;;19.80;92.30;;;;;;5039039;28;20082;-90
2022/07/31 06:52:08;;;;;;;8.57;4.43;;;19.80;92.10;;;;;;5031684;28;20052;-90
2022/07/31 06:54:34;;;;;;;7.72;4.85;;;19.90;92.00;;;;;;4998434;28;20050;-91
2022/07/31 06:57:00;;;;;;;7.10;4.13;;;19.90;92.00;;;;;;5030218;28;20499;-91
2022/07/31 06:59:26;;;;;;;10.85;4.47;;;20.00;92.10;;;;;;5030001;28;20040;-91
2022/07/31 07:01:52;;;;;;;7.78;4.65;;;20.00;92.10;;;;;;5028452;28;20106;-92
2022/07/31 07:04:18;;;;;;;9.30;4.68;;;20.10;92.00;;;;;;5016262;28;20087;-90
2022/07/31 07:06:44;;;;;;;7.55;4.50;;;20.10;92.00;;;;;;5023108;28;20044;-92
2022/07/31 07:09:10;;;;;;;7.80;4.20;;;20.10;91.90;;;;;;5014710;28;20051;-91
2022/07/31 07:11:36;;;;;;;8.63;4.95;;;20.20;91.90;;;;;;5008443;28;20390;-90
2022/07/31 07:14:02;;;;;;;9.07;4.35;;;20.20;91.90;;;;;;5032797;28;20146;-92
2022/07/31 07:16:28;;;;;;;7.22;4.57;;;20.20;91.80;;;;;;5028848;28;20467;-89
2022/07/31 07:18:54;;;;;;;11.30;4.63;;;20.20;91.80;;;;;;5041017;28;20052;-92
2022/07/31 07:21:19;;;;;;;7.88;4.45;;;20.30;91.90;;;;;;5028325;28;20635;-91
2022/07/31 07:23:46;;;;;;;9.88;5.10;;;20.30;91.90;;;;;;5026468;28;20072;-92
2022/07/31 07:26:12;;;;;;;6.60;4.80;;;20.40;91.70;;;;;;5030996;28;21359;-89
2022/07/31 07:28:40;;;;;;;7.05;4.38;;;20.40;91.70;;;;;;5012867;28;20051;-91
2022/07/31 07:31:06;;;;;;;10.13;5.25;;;20.40;91.80;;;;;;5009090;28;20147;-91
2022/07/31 07:33:32;;;;;;;7.10;4.68;;;20.40;91.70;;;;;;5011274;28;20066;-90
2022/07/31 07:35:58;;;;;;;7.57;4.75;;;20.40;91.70;;;;;;5030565;28;20044;-90
2022/07/31 07:38:24;;;;;;;6.63;4.88;;;20.50;91.60;;;;;;5016069;28;20047;-91
2022/07/31 07:40:50;;;;;;;7.80;4.78;;;20.50;91.50;;;;;;5029349;28;20040;-92
2022/07/31 07:43:17;;;;;;;6.75;4.78;;;20.50;91.40;;;;;;4995092;28;20051;-91
2022/07/31 07:45:43;;;;;;;7.55;5.15;;;20.60;91.40;;;;;;5030494;28;20148;-89
2022/07/31 07:48:09;;;;;;;10.90;4.80;;;20.60;91.40;;;;;;4996405;28;20134;-92
2022/07/31 07:50:35;;;;;;;6.78;5.20;;;20.70;91.30;;;;;;5008496;28;20059;-90
2022/07/31 07:53:00;;;;;;;9.25;5.25;;;20.70;91.20;;;;;;5010000;28;20045;-92
2022/07/31 07:55:27;;;;;;;7.28;5.00;;;20.80;91.00;;;;;;5013360;28;20086;-90
2022/07/31 07:57:52;;;;;;;7.38;4.88;;;20.80;91.10;;;;;;4992361;28;20058;-92
2022/07/31 08:00:19;;;;;;;8.13;5.45;;;20.90;91.20;;;;;;5031606;28;20732;-92
2022/07/31 08:02:47;;;;;;;10.23;5.28;;;21.00;91.10;;;;;;5046095;28;20044;-92
2022/07/31 08:05:15;;;;;;;11.77;5.50;;;21.10;91.10;;;;;;5041981;28;20089;-92
2022/07/31 08:07:41;;;;;;;9.50;5.20;;;21.20;90.80;;;;;;5028390;28;20436;-92
2022/07/31 08:10:08;;;;;;;9.38;5.07;;;21.40;90.90;;;;;;5018029;28;20042;-93
2022/07/31 08:12:34;;;;;;;8.80;5.75;;;21.40;90.80;;;;;;5056015;28;20051;-94
2022/07/31 08:15:01;;;;;;;9.48;5.90;;;21.50;90.70;;;;;;5041344;28;20055;-92
2022/07/31 08:17:28;;;;;;;12.50;5.78;;;21.50;90.80;;;;;;5049781;28;20045;-90
2022/07/31 08:19:54;;;;;;;10.80;5.85;;;21.60;91.10;;;;;;5000984;28;20402;-93
2022/07/31 08:22:20;;;;;;;13.95;5.47;;;21.60;90.70;;;;;;5015630;28;20052;-91
2022/07/31 08:24:46;;;;;;;11.48;6.30;;;21.60;90.70;;;;;;5022270;28;20051;-91
2022/07/31 08:27:23;;;;;;;8.70;5.60;;;21.60;90.80;;;;;;5020602;28;20045;-93
2022/07/31 08:29:51;;;;;;;9.40;5.45;;;21.60;90.70;;;;;;5037681;28;20490;-92
2022/07/31 08:32:17;;;;;;;7.72;5.45;;;21.50;90.60;;;;;;5007515;28;20202;-93
2022/07/31 08:34:42;;;;;;;10.63;5.60;;;21.70;90.80;;;;;;5039415;28;20123;-91
2022/07/31 08:37:08;;;;;;;10.15;5.50;;;21.70;90.90;;;;;;5022368;28;20094;-92
2022/07/31 08:39:40;;;;;;;8.15;5.47;;;21.80;91.20;;;;;;5036846;28;20040;-93
2022/07/31 08:42:08;;;;;;;9.85;5.60;;;21.80;91.20;;;;;;5038152;28;20040;-93
2022/07/31 08:44:42;;;;;;;12.43;5.45;;;21.80;91.40;;;;;;5040578;28;20048;-92
2022/07/31 08:47:11;;;;;;;14.30;6.40;;;21.90;91.30;;;;;;5041379;28;20063;-92
2022/07/31 08:49:42;;;;;;;10.10;6.18;;;21.90;91.70;;;;;;5037651;28;20041;-91
2022/07/31 08:52:19;;;;;;;11.93;5.75;;;21.90;91.80;;;;;;5017077;28;20453;-91
2022/07/31 08:54:48;;;;;;;9.48;6.00;;;21.90;92.10;;;;;;5038309;28;20097;-91
2022/07/31 08:57:14;;;;;;;14.43;6.30;;;21.90;92.40;;;;;;5037899;28;20036;-92
2022/07/31 08:59:42;;;;;;;10.02;6.45;;;21.90;92.60;;;;;;5023355;28;20055;-91
2022/07/31 09:02:10;;;;;;;9.85;6.57;;;21.90;93.10;;;;;;5017783;28;20072;-92
2022/07/31 09:04:37;;;;;;;11.65;6.70;;;21.90;93.30;;;;;;5003078;28;20043;-92
2022/07/31 09:07:04;;;;;;;19.70;7.32;;;21.90;93.40;;;;;;5036577;28;20048;-91
2022/07/31 09:09:30;;;;;;;15.93;7.53;;;21.80;93.80;;;;;;5024947;28;20039;-94
2022/07/31 09:11:57;;;;;;;9.63;6.93;;;21.80;94.30;;;;;;5054079;28;20056;-93
2022/07/31 09:14:32;;;;;;;13.45;8.10;;;21.80;94.90;;;;;;5052682;28;20053;-91
2022/07/31 09:16:58;;;;;;;21.20;8.90;;;21.70;95.20;;;;;;5042156;28;20101;-92
2022/07/31 09:19:41;;;;;;;12.48;8.48;;;21.60;95.50;;;;;;5009350;28;20052;-91
2022/07/31 09:22:21;;;;;;;13.40;8.20;;;21.60;96.00;;;;;;5049485;28;20040;-92
2022/07/31 09:24:48;;;;;;;13.18;8.52;;;21.50;96.50;;;;;;5018217;28;20028;-92
2022/07/31 09:27:16;;;;;;;13.68;9.32;;;21.50;97.00;;;;;;5020539;28;20044;-91
2022/07/31 09:29:44;;;;;;;15.60;9.27;;;21.50;97.70;;;;;;5006160;28;20044;-94
2022/07/31 09:32:15;;;;;;;12.02;8.50;;;21.50;98.60;;;;;;5036554;28;20044;-94
2022/07/31 09:34:45;;;;;;;17.45;10.48;;;21.50;98.90;;;;;;5030770;28;20067;-94
2022/07/31 09:37:19;;;;;;;13.15;9.35;;;21.50;99.50;;;;;;5030745;28;20048;-94
2022/07/31 09:39:50;;;;;;;14.45;8.98;;;21.50;99.70;;;;;;5053869;28;20067;-93
2022/07/31 09:42:17;;;;;;;15.30;10.10;;;21.50;99.90;;;;;;5080670;28;20040;-93
2022/07/31 09:44:50;;;;;;;13.20;10.35;;;21.40;99.90;;;;;;5073538;28;20071;-94
2022/07/31 09:47:38;;;;;;;16.63;10.40;;;21.40;99.90;;;;;;5049014;28;20087;-94
2022/07/31 09:50:08;;;;;;;13.52;9.57;;;21.30;99.90;;;;;;5071101;28;20052;-91
2022/07/31 09:52:35;;;;;;;15.88;10.73;;;21.20;99.90;;;;;;5034265;28;20048;-93
2022/07/31 09:55:11;;;;;;;16.30;10.48;;;21.10;99.90;;;;;;5048383;28;20045;-92
2022/07/31 09:57:50;;;;;;;16.95;10.73;;;21.10;99.90;;;;;;5049693;28;20055;-93
2022/07/31 10:00:21;;;;;;;15.65;10.68;;;21.00;99.90;;;;;;5043597;28;20055;-93
2022/07/31 10:02:58;;;;;;;15.38;10.18;;;21.00;99.90;;;;;;5043609;28;20033;-93
2022/07/31 10:05:25;;;;;;;12.75;10.52;;;20.80;99.90;;;;;;5041153;28;20067;-92
2022/07/31 10:07:55;;;;;;;16.48;9.85;;;21.00;99.90;;;;;;5043520;28;20560;-94
2022/07/31 10:10:22;;;;;;;15.90;10.90;;;21.00;99.90;;;;;;5030944;28;20044;-94
2022/07/31 10:12:51;;;;;;;13.57;10.73;;;21.00;99.90;;;;;;5056670;28;20529;-93
2022/07/31 10:15:20;;;;;;;14.13;11.45;;;20.90;99.90;;;;;;5053804;28;20040;-93
2022/07/31 10:17:52;;;;;;;16.52;10.73;;;20.90;99.90;;;;;;5051076;28;20123;-94
2022/07/31 10:20:51;;;;;;;12.65;10.52;;;21.00;99.90;;;;;;5056469;28;20078;-92
2022/07/31 10:23:22;;;;;;;16.45;11.10;;;20.90;99.90;;;;;;5064410;28;20040;-93
2022/07/31 10:25:59;;;;;;;18.17;11.05;;;20.90;99.90;;;;;;5046174;28;20036;-94
2022/07/31 10:28:36;;;;;;;16.85;11.07;;;20.90;99.90;;;;;;5054305;28;20048;-93
2022/07/31 10:31:07;;;;;;;15.25;11.02;;;21.00;99.90;;;;;;5066397;28;20043;-92
2022/07/31 10:33:34;;;;;;;15.25;11.88;;;20.90;99.90;;;;;;5039338;28;20059;-94
2022/07/31 10:36:21;;;;;;;20.58;11.48;;;20.80;99.90;;;;;;5047339;28;20041;-94
2022/07/31 10:38:51;;;;;;;17.60;11.55;;;20.80;99.90;;;;;;5067189;28;20047;-94
2022/07/31 10:41:24;;;;;;;13.68;11.00;;;20.70;99.90;;;;;;5054246;28;20040;-92
2022/07/31 10:44:15;;;;;;;13.77;10.98;;;20.70;99.90;;;;;;5042914;28;20177;-93
2022/07/31 10:46:41;;;;;;;17.13;11.70;;;20.60;99.90;;;;;;5054561;28;20128;-92
2022/07/31 10:49:08;;;;;;;17.17;11.90;;;20.60;99.90;;;;;;5014131;28;20127;-94
2022/07/31 10:51:44;;;;;;;13.90;11.25;;;20.60;99.90;;;;;;5020632;28;20051;-94
2022/07/31 10:54:12;;;;;;;18.42;12.13;;;20.60;99.90;;;;;;5053523;28;20040;-93
2022/07/31 10:56:43;;;;;;;17.58;11.20;;;20.60;99.90;;;;;;5033873;28;20060;-93
2022/07/31 10:59:09;;;;;;;19.38;12.77;;;20.60;99.90;;;;;;5041449;28;20050;-94
2022/07/31 11:01:53;;;;;;;20.25;12.63;;;20.50;99.90;;;;;;5018425;28;20096;-94
2022/07/31 11:04:29;;;;;;;16.92;12.55;;;20.50;99.90;;;;;;5043089;28;20107;-91
2022/07/31 11:06:55;;;;;;;17.13;12.35;;;20.50;99.90;;;;;;5026119;28;20052;-93
2022/07/31 11:09:27;;;;;;;17.13;12.32;;;20.40;99.90;;;;;;5037807;28;20040;-92
2022/07/31 11:11:53;;;;;;;15.32;12.60;;;20.40;99.90;;;;;;5031509;28;20483;-93
2022/07/31 11:14:34;;;;;;;16.77;11.68;;;20.30;99.90;;;;;;5026179;28;20609;-93
2022/07/31 11:17:00;;;;;;;12.68;11.10;;;20.30;99.90;;;;;;5025161;28;20055;-95
2022/07/31 11:19:41;;;;;;;15.88;12.95;;;20.30;99.90;;;;;;5011633;28;20040;-93
2022/07/31 11:22:14;;;;;;;17.02;12.52;;;20.30;99.90;;;;;;5040098;28;20087;-93
2022/07/31 11:24:40;;;;;;;17.85;13.45;;;20.30;99.90;;;;;;5039146;28;20044;-94
2022/07/31 11:27:07;;;;;;;16.77;13.65;;;20.30;99.90;;;;;;5036306;28;20048;-92
2022/07/31 11:29:37;;;;;;;18.25;13.15;;;20.30;99.90;;;;;;5020592;28;20040;-93
2022/07/31 11:32:17;;;;;;;18.05;13.88;;;20.30;99.90;;;;;;5035300;28;20082;-94
2022/07/31 11:34:54;;;;;;;15.80;14.02;;;20.30;99.90;;;;;;5005894;28;20071;-93
2022/07/31 11:37:29;;;;;;;15.88;13.38;;;20.30;99.90;;;;;;5034440;28;20491;-93
2022/07/31 11:39:56;;;;;;;13.77;12.23;;;20.30;99.90;;;;;;5025386;28;20040;-92
2022/07/31 11:42:23;;;;;;;17.75;13.65;;;20.20;99.90;;;;;;5018778;28;20043;-93
2022/07/31 11:44:50;;;;;;;14.15;12.65;;;20.20;99.90;;;;;;5028843;28;20040;-94
2022/07/31 11:47:16;;;;;;;17.15;13.98;;;20.20;99.90;;;;;;5034120;28;20092;-92
2022/07/31 11:49:42;;;;;;;20.70;13.30;;;20.20;99.90;;;;;;5016265;28;20546;-91
2022/07/31 11:52:11;;;;;;;19.77;14.63;;;20.10;99.90;;;;;;5022613;28;20051;-93
2022/07/31 11:54:39;;;;;;;15.25;12.38;;;20.10;99.90;;;;;;5027848;28;20044;-92
2022/07/31 11:57:05;;;;;;;16.13;12.50;;;20.10;99.90;;;;;;5019021;28;20056;-94
2022/07/31 11:59:35;;;;;;;16.65;12.35;;;20.00;99.90;;;;;;5008294;28;20493;-91
2022/07/31 12:02:11;;;;;;;14.73;12.38;;;20.00;99.90;;;;;;5051122;28;20028;-93
2022/07/31 12:04:39;;;;;;;18.52;12.35;;;19.90;99.90;;;;;;5021533;28;20048;-90
2022/07/31 12:07:08;;;;;;;15.18;12.57;;;19.80;99.90;;;;;;5057403;28;20051;-93
2022/07/31 12:09:35;;;;;;;14.60;13.00;;;19.80;99.90;;;;;;5026186;28;20040;-93
2022/07/31 12:12:03;;;;;;;14.80;12.93;;;19.70;99.90;;;;;;5042871;28;20425;-93
2022/07/31 12:14:35;;;;;;;13.68;12.30;;;19.70;99.90;;;;;;5040903;28;20403;-93
2022/07/31 12:17:08;;;;;;;16.60;13.25;;;19.70;99.90;;;;;;5027722;28;20105;-94
2022/07/31 12:19:38;;;;;;;15.93;13.23;;;19.60;99.90;;;;;;5034207;28;20392;-94
2022/07/31 12:22:19;;;;;;;16.55;13.18;;;19.60;99.90;;;;;;5032622;28;20040;-93
2022/07/31 12:24:46;;;;;;;14.20;12.18;;;19.70;99.90;;;;;;5010059;28;20463;-95
2022/07/31 12:27:17;;;;;;;14.77;12.57;;;19.60;99.90;;;;;;5027960;28;20051;-91
2022/07/31 12:29:44;;;;;;;15.70;12.43;;;19.60;99.90;;;;;;5029392;28;20114;-93
2022/07/31 12:32:11;;;;;;;15.95;12.30;;;19.60;99.90;;;;;;5053252;28;20047;-93
2022/07/31 12:34:44;;;;;;;13.23;11.35;;;19.70;99.90;;;;;;5068870;28;20043;-96
2022/07/31 12:37:17;;;;;;;12.25;10.55;;;19.60;99.90;;;;;;5025227;28;20100;-93
2022/07/31 12:39:45;;;;;;;11.95;10.27;;;19.70;99.90;;;;;;5086131;28;20370;-94
2022/07/31 12:42:26;;;;;;;12.50;9.25;;;19.70;99.90;;;;;;5051696;28;20044;-94
2022/07/31 12:44:59;;;;;;;12.52;10.88;;;19.60;99.90;;;;;;5050381;28;20103;-93
2022/07/31 12:47:30;;;;;;;13.30;11.15;;;19.60;99.90;;;;;;5070440;28;20091;-94